Terminal Aerodrome Forecast
Issued by NWS Corpus Christi, TX

Home | Current Version | Previous Version | Text Only | Print | Product List | Glossary On
Versions: 1 2 3 4 5 6 7 8 9 10 11 12 13 14 15
000
FTUS44 KCRP 232327
TAFCRP
TAF
KCRP 232327Z 2400/2424 11014KT P6SM SCT030
     FM240100 12009KT P6SM SCT025
     FM240800 13006KT P6SM VCSH SCT018 SCT025
     FM241500 14011KT P6SM SCT025 SCT035
     FM241800 13015G20KT P6SM SCT030 SCT040=

USA.gov is the U.S. government's official web portal to all federal, state and local government web resources and services.